sensor_id;sensor_type;location;lat;lon;timestamp;P1;durP1;ratioP1;P2;durP2;ratioP2
37201;SDS011;37799;52.390;6.136;2022-10-04T00:01:04;7.95;;;1.83;;
37201;SDS011;37799;52.390;6.136;2022-10-04T00:06:16;5.32;;;1.67;;
37201;SDS011;37799;52.390;6.136;2022-10-04T00:09:07;6.40;;;1.88;;
37201;SDS011;37799;52.390;6.136;2022-10-04T00:11:42;6.22;;;1.60;;
37201;SDS011;37799;52.390;6.136;2022-10-04T00:14:14;5.25;;;1.88;;
37201;SDS011;37799;52.390;6.136;2022-10-04T00:16:59;9.77;;;1.75;;
37201;SDS011;37799;52.390;6.136;2022-10-04T00:19:39;6.97;;;1.67;;
37201;SDS011;37799;52.390;6.136;2022-10-04T00:22:09;4.57;;;1.23;;
37201;SDS011;37799;52.390;6.136;2022-10-04T00:24:36;4.70;;;1.73;;
37201;SDS011;37799;52.390;6.136;2022-10-04T00:27:23;8.02;;;1.77;;
37201;SDS011;37799;52.390;6.136;2022-10-04T00:37:53;6.43;;;1.67;;
37201;SDS011;37799;52.390;6.136;2022-10-04T00:40:20;6.55;;;1.40;;
37201;SDS011;37799;52.390;6.136;2022-10-04T00:42:49;4.30;;;1.27;;
37201;SDS011;37799;52.390;6.136;2022-10-04T00:45:58;4.30;;;1.25;;
37201;SDS011;37799;52.390;6.136;2022-10-04T00:48:29;5.97;;;1.40;;
37201;SDS011;37799;52.390;6.136;2022-10-04T00:54:17;7.32;;;1.35;;
37201;SDS011;37799;52.390;6.136;2022-10-04T00:56:52;2.35;;;0.88;;
37201;SDS011;37799;52.390;6.136;2022-10-04T00:59:37;5.57;;;1.60;;
37201;SDS011;37799;52.390;6.136;2022-10-04T01:02:15;5.50;;;1.20;;
37201;SDS011;37799;52.390;6.136;2022-10-04T01:04:50;7.38;;;1.50;;
37201;SDS011;37799;52.390;6.136;2022-10-04T01:07:21;5.72;;;1.30;;
37201;SDS011;37799;52.390;6.136;2022-10-04T01:09:57;5.50;;;1.30;;
37201;SDS011;37799;52.390;6.136;2022-10-04T01:12:32;3.42;;;1.00;;
37201;SDS011;37799;52.390;6.136;2022-10-04T01:17:32;6.53;;;1.52;;
37201;SDS011;37799;52.390;6.136;2022-10-04T01:19:58;5.07;;;1.20;;
37201;SDS011;37799;52.390;6.136;2022-10-04T01:22:34;6.07;;;1.27;;
37201;SDS011;37799;52.390;6.136;2022-10-04T01:25:04;3.28;;;0.90;;
37201;SDS011;37799;52.390;6.136;2022-10-04T01:27:34;5.85;;;1.27;;
37201;SDS011;37799;52.390;6.136;2022-10-04T01:30:08;3.97;;;1.10;;
37201;SDS011;37799;52.390;6.136;2022-10-04T01:32:37;7.10;;;1.88;;
37201;SDS011;37799;52.390;6.136;2022-10-04T01:35:05;5.25;;;1.40;;
37201;SDS011;37799;52.390;6.136;2022-10-04T01:37:32;6.07;;;1.10;;
37201;SDS011;37799;52.390;6.136;2022-10-04T01:39:57;4.75;;;1.38;;
37201;SDS011;37799;52.390;6.136;2022-10-04T01:42:28;8.10;;;2.10;;
37201;SDS011;37799;52.390;6.136;2022-10-04T01:45:01;4.72;;;1.42;;
37201;SDS011;37799;52.390;6.136;2022-10-04T01:47:31;4.18;;;1.15;;
37201;SDS011;37799;52.390;6.136;2022-10-04T01:50:02;5.85;;;1.60;;
37201;SDS011;37799;52.390;6.136;2022-10-04T01:52:34;6.03;;;1.80;;
37201;SDS011;37799;52.390;6.136;2022-10-04T01:55:46;8.10;;;1.63;;
37201;SDS011;37799;52.390;6.136;2022-10-04T01:58:08;5.47;;;1.20;;
37201;SDS011;37799;52.390;6.136;2022-10-04T02:00:37;4.07;;;1.10;;
37201;SDS011;37799;52.390;6.136;2022-10-04T02:03:13;9.48;;;1.75;;
37201;SDS011;37799;52.390;6.136;2022-10-04T02:06:01;5.78;;;1.73;;
37201;SDS011;37799;52.390;6.136;2022-10-04T02:08:31;6.03;;;1.50;;
37201;SDS011;37799;52.390;6.136;2022-10-04T02:11:00;4.78;;;1.60;;
37201;SDS011;37799;52.390;6.136;2022-10-04T02:13:27;5.72;;;1.77;;
37201;SDS011;37799;52.390;6.136;2022-10-04T02:15:59;5.97;;;1.80;;
37201;SDS011;37799;52.390;6.136;2022-10-04T02:18:26;5.15;;;1.67;;
37201;SDS011;37799;52.390;6.136;2022-10-04T02:20:53;5.05;;;1.75;;
37201;SDS011;37799;52.390;6.136;2022-10-04T02:23:20;4.82;;;1.52;;
37201;SDS011;37799;52.390;6.136;2022-10-04T02:25:47;9.75;;;1.80;;
37201;SDS011;37799;52.390;6.136;2022-10-04T02:28:13;5.75;;;1.73;;
37201;SDS011;37799;52.390;6.136;2022-10-04T02:30:43;7.32;;;1.70;;
37201;SDS011;37799;52.390;6.136;2022-10-04T02:33:32;7.65;;;1.90;;
37201;SDS011;37799;52.390;6.136;2022-10-04T02:36:02;5.32;;;1.75;;
37201;SDS011;37799;52.390;6.136;2022-10-04T02:38:31;4.72;;;1.50;;
37201;SDS011;37799;52.390;6.136;2022-10-04T02:41:43;10.43;;;1.90;;
37201;SDS011;37799;52.390;6.136;2022-10-04T02:43:55;10.18;;;2.08;;
37201;SDS011;37799;52.390;6.136;2022-10-04T02:52:25;5.63;;;2.05;;
37201;SDS011;37799;52.390;6.136;2022-10-04T02:55:19;7.13;;;2.03;;
37201;SDS011;37799;52.390;6.136;2022-10-04T02:57:47;7.45;;;2.10;;
37201;SDS011;37799;52.390;6.136;2022-10-04T03:08:28;5.45;;;1.67;;
37201;SDS011;37799;52.390;6.136;2022-10-04T03:10:58;6.15;;;1.98;;
37201;SDS011;37799;52.390;6.136;2022-10-04T03:13:26;8.75;;;2.40;;
37201;SDS011;37799;52.390;6.136;2022-10-04T03:15:52;6.53;;;2.08;;
37201;SDS011;37799;52.390;6.136;2022-10-04T03:18:18;6.53;;;2.40;;
37201;SDS011;37799;52.390;6.136;2022-10-04T03:20:44;7.07;;;2.28;;
37201;SDS011;37799;52.390;6.136;2022-10-04T03:23:11;6.45;;;1.98;;
37201;SDS011;37799;52.390;6.136;2022-10-04T03:25:48;6.75;;;2.22;;
37201;SDS011;37799;52.390;6.136;2022-10-04T03:28:17;7.30;;;2.13;;
37201;SDS011;37799;52.390;6.136;2022-10-04T03:30:43;7.78;;;2.13;;
37201;SDS011;37799;52.390;6.136;2022-10-04T03:33:18;7.80;;;2.72;;
37201;SDS011;37799;52.390;6.136;2022-10-04T03:35:46;6.85;;;1.92;;
37201;SDS011;37799;52.390;6.136;2022-10-04T03:38:15;7.72;;;2.15;;
37201;SDS011;37799;52.390;6.136;2022-10-04T03:40:43;9.02;;;2.35;;
37201;SDS011;37799;52.390;6.136;2022-10-04T03:43:15;5.55;;;2.03;;
37201;SDS011;37799;52.390;6.136;2022-10-04T03:45:41;8.02;;;2.65;;
37201;SDS011;37799;52.390;6.136;2022-10-04T03:48:07;11.32;;;2.40;;
37201;SDS011;37799;52.390;6.136;2022-10-04T03:50:38;8.32;;;2.85;;
37201;SDS011;37799;52.390;6.136;2022-10-04T03:56:11;5.78;;;1.95;;
37201;SDS011;37799;52.390;6.136;2022-10-04T03:58:45;6.25;;;2.38;;
37201;SDS011;37799;52.390;6.136;2022-10-04T04:06:41;6.50;;;2.28;;
37201;SDS011;37799;52.390;6.136;2022-10-04T04:09:20;7.47;;;2.25;;
37201;SDS011;37799;52.390;6.136;2022-10-04T04:11:49;9.93;;;2.63;;
37201;SDS011;37799;52.390;6.136;2022-10-04T04:14:25;6.55;;;2.00;;
37201;SDS011;37799;52.390;6.136;2022-10-04T04:16:52;9.38;;;3.08;;
37201;SDS011;37799;52.390;6.136;2022-10-04T04:19:38;7.10;;;2.42;;
37201;SDS011;37799;52.390;6.136;2022-10-04T04:22:07;10.40;;;2.67;;
37201;SDS011;37799;52.390;6.136;2022-10-04T04:24:42;8.32;;;2.95;;
37201;SDS011;37799;52.390;6.136;2022-10-04T04:27:08;6.93;;;2.10;;
37201;SDS011;37799;52.390;6.136;2022-10-04T04:29:48;10.60;;;2.65;;
37201;SDS011;37799;52.390;6.136;2022-10-04T04:32:17;8.68;;;2.50;;
37201;SDS011;37799;52.390;6.136;2022-10-04T04:35:16;8.90;;;2.88;;
37201;SDS011;37799;52.390;6.136;2022-10-04T04:38:00;11.95;;;2.85;;
37201;SDS011;37799;52.390;6.136;2022-10-04T04:40:44;8.35;;;2.53;;
37201;SDS011;37799;52.390;6.136;2022-10-04T04:43:12;7.20;;;2.30;;
37201;SDS011;37799;52.390;6.136;2022-10-04T04:45:42;8.27;;;2.50;;
37201;SDS011;37799;52.390;6.136;2022-10-04T04:48:10;7.07;;;2.55;;
37201;SDS011;37799;52.390;6.136;2022-10-04T04:50:38;6.90;;;2.13;;
37201;SDS011;37799;52.390;6.136;2022-10-04T04:53:13;7.85;;;2.92;;
37201;SDS011;37799;52.390;6.136;2022-10-04T04:55:46;7.57;;;2.33;;
37201;SDS011;37799;52.390;6.136;2022-10-04T04:58:18;9.48;;;2.55;;
37201;SDS011;37799;52.390;6.136;2022-10-04T05:00:53;6.00;;;2.13;;
37201;SDS011;37799;52.390;6.136;2022-10-04T05:03:21;7.20;;;2.83;;
37201;SDS011;37799;52.390;6.136;2022-10-04T05:05:48;8.00;;;2.53;;
37201;SDS011;37799;52.390;6.136;2022-10-04T05:08:17;8.15;;;3.13;;
37201;SDS011;37799;52.390;6.136;2022-10-04T05:13:47;6.97;;;2.50;;
37201;SDS011;37799;52.390;6.136;2022-10-04T05:16:18;7.82;;;2.63;;
37201;SDS011;37799;52.390;6.136;2022-10-04T05:18:47;7.77;;;2.30;;
37201;SDS011;37799;52.390;6.136;2022-10-04T05:21:19;10.00;;;3.22;;
37201;SDS011;37799;52.390;6.136;2022-10-04T05:23:51;9.23;;;2.80;;
37201;SDS011;37799;52.390;6.136;2022-10-04T05:26:22;8.88;;;2.58;;
37201;SDS011;37799;52.390;6.136;2022-10-04T05:28:51;9.27;;;3.13;;
37201;SDS011;37799;52.390;6.136;2022-10-04T05:34:01;9.45;;;3.17;;
37201;SDS011;37799;52.390;6.136;2022-10-04T05:42:21;9.65;;;3.13;;
37201;SDS011;37799;52.390;6.136;2022-10-04T05:44:55;10.48;;;3.17;;
37201;SDS011;37799;52.390;6.136;2022-10-04T05:47:22;8.73;;;3.22;;
37201;SDS011;37799;52.390;6.136;2022-10-04T05:49:52;9.68;;;3.78;;
37201;SDS011;37799;52.390;6.136;2022-10-04T05:52:33;8.93;;;3.42;;
37201;SDS011;37799;52.390;6.136;2022-10-04T06:01:05;10.32;;;3.42;;
37201;SDS011;37799;52.390;6.136;2022-10-04T06:06:23;10.77;;;4.30;;
37201;SDS011;37799;52.390;6.136;2022-10-04T06:16:41;9.35;;;3.75;;
37201;SDS011;37799;52.390;6.136;2022-10-04T06:19:25;9.60;;;3.47;;
37201;SDS011;37799;52.390;6.136;2022-10-04T06:21:59;12.45;;;3.83;;
37201;SDS011;37799;52.390;6.136;2022-10-04T06:24:34;9.35;;;3.60;;
37201;SDS011;37799;52.390;6.136;2022-10-04T06:29:57;11.35;;;4.38;;
37201;SDS011;37799;52.390;6.136;2022-10-04T06:32:34;10.85;;;4.43;;
37201;SDS011;37799;52.390;6.136;2022-10-04T06:35:16;8.93;;;3.33;;
37201;SDS011;37799;52.390;6.136;2022-10-04T06:43:22;13.23;;;4.03;;
37201;SDS011;37799;52.390;6.136;2022-10-04T06:51:45;11.85;;;4.20;;
37201;SDS011;37799;52.390;6.136;2022-10-04T06:54:25;10.85;;;4.43;;
37201;SDS011;37799;52.390;6.136;2022-10-04T07:02:27;11.73;;;5.22;;
37201;SDS011;37799;52.390;6.136;2022-10-04T07:05:02;12.98;;;5.30;;
37201;SDS011;37799;52.390;6.136;2022-10-04T07:07:37;10.63;;;4.65;;
37201;SDS011;37799;52.390;6.136;2022-10-04T07:18:53;12.25;;;5.25;;
37201;SDS011;37799;52.390;6.136;2022-10-04T07:21:44;11.48;;;5.45;;
37201;SDS011;37799;52.390;6.136;2022-10-04T07:24:28;14.45;;;6.38;;
37201;SDS011;37799;52.390;6.136;2022-10-04T07:27:07;17.42;;;6.50;;
37201;SDS011;37799;52.390;6.136;2022-10-04T07:29:37;18.85;;;7.95;;
37201;SDS011;37799;52.390;6.136;2022-10-04T07:41:25;16.75;;;5.60;;
37201;SDS011;37799;52.390;6.136;2022-10-04T07:43:33;11.77;;;4.60;;
37201;SDS011;37799;52.390;6.136;2022-10-04T07:46:16;7.43;;;3.17;;
37201;SDS011;37799;52.390;6.136;2022-10-04T07:48:48;7.05;;;2.50;;
37201;SDS011;37799;52.390;6.136;2022-10-04T07:51:26;7.93;;;2.65;;
37201;SDS011;37799;52.390;6.136;2022-10-04T07:54:17;7.95;;;2.72;;
37201;SDS011;37799;52.390;6.136;2022-10-04T07:56:53;7.68;;;2.85;;
37201;SDS011;37799;52.390;6.136;2022-10-04T08:03:08;12.38;;;3.20;;
37201;SDS011;37799;52.390;6.136;2022-10-04T08:16:36;7.95;;;3.08;;
37201;SDS011;37799;52.390;6.136;2022-10-04T08:22:26;17.08;;;3.50;;
37201;SDS011;37799;52.390;6.136;2022-10-04T08:30:54;8.45;;;2.72;;
37201;SDS011;37799;52.390;6.136;2022-10-04T08:37:12;7.55;;;2.20;;
37201;SDS011;37799;52.390;6.136;2022-10-04T08:39:57;6.70;;;2.45;;
37201;SDS011;37799;52.390;6.136;2022-10-04T08:48:13;6.35;;;2.03;;
37201;SDS011;37799;52.390;6.136;2022-10-04T08:59:53;7.28;;;2.00;;
37201;SDS011;37799;52.390;6.136;2022-10-04T09:17:28;6.63;;;1.90;;
37201;SDS011;37799;52.390;6.136;2022-10-04T09:20:16;6.13;;;2.17;;
37201;SDS011;37799;52.390;6.136;2022-10-04T09:25:46;6.05;;;2.05;;
37201;SDS011;37799;52.390;6.136;2022-10-04T09:31:40;6.75;;;2.08;;
37201;SDS011;37799;52.390;6.136;2022-10-04T09:37:45;5.10;;;1.65;;
37201;SDS011;37799;52.390;6.136;2022-10-04T09:40:32;6.70;;;2.10;;
37201;SDS011;37799;52.390;6.136;2022-10-04T09:57:19;7.93;;;2.03;;
37201;SDS011;37799;52.390;6.136;2022-10-04T09:59:55;6.80;;;1.60;;
37201;SDS011;37799;52.390;6.136;2022-10-04T10:05:21;4.82;;;1.80;;
37201;SDS011;37799;52.390;6.136;2022-10-04T10:08:12;6.83;;;2.07;;
37201;SDS011;37799;52.390;6.136;2022-10-04T10:11:03;7.72;;;1.75;;
37201;SDS011;37799;52.390;6.136;2022-10-04T10:13:57;5.68;;;1.52;;
37201;SDS011;37799;52.390;6.136;2022-10-04T10:30:29;4.57;;;1.07;;
37201;SDS011;37799;52.390;6.136;2022-10-04T10:36:40;3.30;;;0.80;;
37201;SDS011;37799;52.390;6.136;2022-10-04T10:45:22;3.92;;;1.10;;
37201;SDS011;37799;52.390;6.136;2022-10-04T10:47:59;4.90;;;1.00;;
37201;SDS011;37799;52.390;6.136;2022-10-04T10:56:37;5.28;;;0.90;;
37201;SDS011;37799;52.390;6.136;2022-10-04T11:02:06;4.50;;;1.13;;
37201;SDS011;37799;52.390;6.136;2022-10-04T11:19:11;5.40;;;1.48;;
37201;SDS011;37799;52.390;6.136;2022-10-04T11:28:09;3.58;;;1.13;;
37201;SDS011;37799;52.390;6.136;2022-10-04T11:33:41;5.47;;;1.10;;
37201;SDS011;37799;52.390;6.136;2022-10-04T11:36:24;4.18;;;1.38;;
37201;SDS011;37799;52.390;6.136;2022-10-04T11:39:14;7.22;;;1.30;;
37201;SDS011;37799;52.390;6.136;2022-10-04T12:01:48;4.45;;;0.70;;
37201;SDS011;37799;52.390;6.136;2022-10-04T12:26:09;2.78;;;0.50;;
37201;SDS011;37799;52.390;6.136;2022-10-04T12:31:35;1.70;;;0.50;;
37201;SDS011;37799;52.390;6.136;2022-10-04T12:45:14;7.22;;;0.90;;
37201;SDS011;37799;52.390;6.136;2022-10-04T13:09:59;3.67;;;0.73;;
37201;SDS011;37799;52.390;6.136;2022-10-04T13:15:04;5.07;;;1.10;;
37201;SDS011;37799;52.390;6.136;2022-10-04T13:17:42;2.55;;;0.60;;
37201;SDS011;37799;52.390;6.136;2022-10-04T13:25:55;2.95;;;0.63;;
37201;SDS011;37799;52.390;6.136;2022-10-04T13:31:23;2.03;;;0.70;;
37201;SDS011;37799;52.390;6.136;2022-10-04T13:37:04;6.38;;;0.80;;
37201;SDS011;37799;52.390;6.136;2022-10-04T13:42:39;5.82;;;0.73;;
37201;SDS011;37799;52.390;6.136;2022-10-04T13:54:21;3.22;;;0.65;;
37201;SDS011;37799;52.390;6.136;2022-10-04T13:59:58;3.80;;;1.00;;
37201;SDS011;37799;52.390;6.136;2022-10-04T14:11:11;4.50;;;0.68;;
37201;SDS011;37799;52.390;6.136;2022-10-04T14:16:29;5.05;;;1.25;;
37201;SDS011;37799;52.390;6.136;2022-10-04T14:35:48;3.47;;;1.00;;
37201;SDS011;37799;52.390;6.136;2022-10-04T14:38:35;5.05;;;0.85;;
37201;SDS011;37799;52.390;6.136;2022-10-04T14:42:17;2.85;;;0.70;;
37201;SDS011;37799;52.390;6.136;2022-10-04T14:52:49;1.98;;;0.77;;
37201;SDS011;37799;52.390;6.136;2022-10-04T14:58:22;4.30;;;0.93;;
37201;SDS011;37799;52.390;6.136;2022-10-04T15:01:05;3.15;;;0.57;;
37201;SDS011;37799;52.390;6.136;2022-10-04T15:03:45;3.88;;;0.68;;
37201;SDS011;37799;52.390;6.136;2022-10-04T15:06:43;4.28;;;0.65;;
37201;SDS011;37799;52.390;6.136;2022-10-04T15:17:32;2.60;;;0.50;;
37201;SDS011;37799;52.390;6.136;2022-10-04T15:22:29;2.47;;;0.50;;
37201;SDS011;37799;52.390;6.136;2022-10-04T15:25:34;2.65;;;0.52;;
37201;SDS011;37799;52.390;6.136;2022-10-04T15:28:31;3.38;;;0.65;;
37201;SDS011;37799;52.390;6.136;2022-10-04T15:31:22;9.80;;;0.88;;
37201;SDS011;37799;52.390;6.136;2022-10-04T15:37:01;3.20;;;0.70;;
37201;SDS011;37799;52.390;6.136;2022-10-04T15:39:34;2.80;;;0.80;;
37201;SDS011;37799;52.390;6.136;2022-10-04T15:42:36;4.63;;;0.60;;
37201;SDS011;37799;52.390;6.136;2022-10-04T16:12:59;2.78;;;0.60;;
37201;SDS011;37799;52.390;6.136;2022-10-04T16:21:39;2.80;;;0.55;;
37201;SDS011;37799;52.390;6.136;2022-10-04T16:39:29;5.05;;;0.98;;
37201;SDS011;37799;52.390;6.136;2022-10-04T16:42:18;5.45;;;1.42;;
37201;SDS011;37799;52.390;6.136;2022-10-04T16:44:51;2.60;;;0.63;;
37201;SDS011;37799;52.390;6.136;2022-10-04T16:47:28;3.60;;;0.68;;
37201;SDS011;37799;52.390;6.136;2022-10-04T16:49:57;5.85;;;1.10;;
37201;SDS011;37799;52.390;6.136;2022-10-04T16:55:50;3.63;;;0.80;;
37201;SDS011;37799;52.390;6.136;2022-10-04T17:06:33;3.80;;;1.20;;
37201;SDS011;37799;52.390;6.136;2022-10-04T17:17:22;4.55;;;1.10;;
37201;SDS011;37799;52.390;6.136;2022-10-04T17:20:25;5.43;;;0.82;;
37201;SDS011;37799;52.390;6.136;2022-10-04T17:28:28;5.68;;;1.20;;
37201;SDS011;37799;52.390;6.136;2022-10-04T17:30:59;4.78;;;1.00;;
37201;SDS011;37799;52.390;6.136;2022-10-04T17:36:38;4.93;;;1.45;;
37201;SDS011;37799;52.390;6.136;2022-10-04T17:39:15;5.45;;;1.10;;
37201;SDS011;37799;52.390;6.136;2022-10-04T17:50:04;6.00;;;1.25;;
37201;SDS011;37799;52.390;6.136;2022-10-04T17:52:59;4.93;;;1.33;;
37201;SDS011;37799;52.390;6.136;2022-10-04T18:01:05;4.63;;;1.02;;
37201;SDS011;37799;52.390;6.136;2022-10-04T18:12:05;4.47;;;1.07;;
37201;SDS011;37799;52.390;6.136;2022-10-04T18:17:26;5.57;;;1.17;;
37201;SDS011;37799;52.390;6.136;2022-10-04T18:20:26;4.43;;;1.30;;
37201;SDS011;37799;52.390;6.136;2022-10-04T18:25:40;5.50;;;1.40;;
37201;SDS011;37799;52.390;6.136;2022-10-04T18:30:53;5.13;;;1.40;;
37201;SDS011;37799;52.390;6.136;2022-10-04T18:36:17;4.93;;;1.40;;
37201;SDS011;37799;52.390;6.136;2022-10-04T18:41:36;6.45;;;1.35;;
37201;SDS011;37799;52.390;6.136;2022-10-04T18:44:16;4.47;;;1.17;;
37201;SDS011;37799;52.390;6.136;2022-10-04T18:46:45;5.25;;;1.60;;
37201;SDS011;37799;52.390;6.136;2022-10-04T18:54:27;5.15;;;1.50;;
37201;SDS011;37799;52.390;6.136;2022-10-04T19:00:31;5.93;;;1.52;;
37201;SDS011;37799;52.390;6.136;2022-10-04T19:06:28;4.82;;;1.55;;
37201;SDS011;37799;52.390;6.136;2022-10-04T19:11:59;6.80;;;1.45;;
37201;SDS011;37799;52.390;6.136;2022-10-04T19:14:47;6.22;;;1.45;;
37201;SDS011;37799;52.390;6.136;2022-10-04T19:17:27;6.85;;;1.40;;
37201;SDS011;37799;52.390;6.136;2022-10-04T19:20:13;6.72;;;1.50;;
37201;SDS011;37799;52.390;6.136;2022-10-04T19:25:45;4.43;;;1.38;;
37201;SDS011;37799;52.390;6.136;2022-10-04T19:30:41;5.77;;;1.30;;
37201;SDS011;37799;52.390;6.136;2022-10-04T19:36:08;6.38;;;1.50;;
37201;SDS011;37799;52.390;6.136;2022-10-04T19:38:52;5.28;;;1.45;;
37201;SDS011;37799;52.390;6.136;2022-10-04T19:41:31;3.70;;;0.98;;
37201;SDS011;37799;52.390;6.136;2022-10-04T19:52:41;5.97;;;1.45;;
37201;SDS011;37799;52.390;6.136;2022-10-04T20:01:10;5.68;;;1.42;;
37201;SDS011;37799;52.390;6.136;2022-10-04T20:03:37;4.88;;;1.20;;
37201;SDS011;37799;52.390;6.136;2022-10-04T20:06:03;4.57;;;1.38;;
37201;SDS011;37799;52.390;6.136;2022-10-04T20:13:42;5.85;;;1.35;;
37201;SDS011;37799;52.390;6.136;2022-10-04T20:16:08;5.00;;;1.58;;
37201;SDS011;37799;52.390;6.136;2022-10-04T20:21:09;6.20;;;2.08;;
37201;SDS011;37799;52.390;6.136;2022-10-04T20:23:47;4.07;;;1.27;;
37201;SDS011;37799;52.390;6.136;2022-10-04T20:26:33;5.40;;;1.52;;
37201;SDS011;37799;52.390;6.136;2022-10-04T20:32:03;5.07;;;1.15;;
37201;SDS011;37799;52.390;6.136;2022-10-04T20:34:33;5.00;;;1.55;;
37201;SDS011;37799;52.390;6.136;2022-10-04T20:37:11;5.95;;;1.48;;
37201;SDS011;37799;52.390;6.136;2022-10-04T20:45:03;5.95;;;1.33;;
37201;SDS011;37799;52.390;6.136;2022-10-04T20:47:44;8.95;;;1.38;;
37201;SDS011;37799;52.390;6.136;2022-10-04T20:52:36;6.87;;;1.20;;
37201;SDS011;37799;52.390;6.136;2022-10-04T20:55:19;6.22;;;1.55;;
37201;SDS011;37799;52.390;6.136;2022-10-04T20:57:52;4.97;;;1.48;;
37201;SDS011;37799;52.390;6.136;2022-10-04T21:00:23;5.82;;;1.10;;
37201;SDS011;37799;52.390;6.136;2022-10-04T21:02:58;6.25;;;1.38;;
37201;SDS011;37799;52.390;6.136;2022-10-04T21:05:34;3.67;;;1.08;;
37201;SDS011;37799;52.390;6.136;2022-10-04T21:08:20;5.28;;;1.30;;
37201;SDS011;37799;52.390;6.136;2022-10-04T21:13:42;4.28;;;1.48;;
37201;SDS011;37799;52.390;6.136;2022-10-04T21:16:31;4.35;;;1.00;;
37201;SDS011;37799;52.390;6.136;2022-10-04T21:22:04;6.10;;;1.83;;
37201;SDS011;37799;52.390;6.136;2022-10-04T21:24:34;5.72;;;1.60;;
37201;SDS011;37799;52.390;6.136;2022-10-04T21:27:03;3.95;;;0.98;;
37201;SDS011;37799;52.390;6.136;2022-10-04T21:29:30;5.22;;;1.48;;
37201;SDS011;37799;52.390;6.136;2022-10-04T21:31:56;4.85;;;1.35;;
37201;SDS011;37799;52.390;6.136;2022-10-04T21:34:22;5.28;;;1.33;;
37201;SDS011;37799;52.390;6.136;2022-10-04T21:36:47;4.60;;;1.17;;
37201;SDS011;37799;52.390;6.136;2022-10-04T21:39:13;5.60;;;1.40;;
37201;SDS011;37799;52.390;6.136;2022-10-04T21:41:38;3.70;;;1.23;;
37201;SDS011;37799;52.390;6.136;2022-10-04T21:44:03;4.13;;;1.10;;
37201;SDS011;37799;52.390;6.136;2022-10-04T21:46:29;4.80;;;1.23;;
37201;SDS011;37799;52.390;6.136;2022-10-04T21:48:54;4.57;;;1.10;;
37201;SDS011;37799;52.390;6.136;2022-10-04T21:51:19;4.45;;;1.13;;
37201;SDS011;37799;52.390;6.136;2022-10-04T21:53:45;6.40;;;1.88;;
37201;SDS011;37799;52.390;6.136;2022-10-04T21:56:10;4.55;;;1.20;;
37201;SDS011;37799;52.390;6.136;2022-10-04T21:58:36;6.43;;;1.15;;
37201;SDS011;37799;52.390;6.136;2022-10-04T22:01:01;4.65;;;1.27;;
37201;SDS011;37799;52.390;6.136;2022-10-04T22:03:26;4.72;;;1.08;;
37201;SDS011;37799;52.390;6.136;2022-10-04T22:05:52;6.78;;;1.02;;
37201;SDS011;37799;52.390;6.136;2022-10-04T22:08:17;4.22;;;1.10;;
37201;SDS011;37799;52.390;6.136;2022-10-04T22:10:42;5.53;;;1.30;;
37201;SDS011;37799;52.390;6.136;2022-10-04T22:13:08;4.95;;;1.17;;
37201;SDS011;37799;52.390;6.136;2022-10-04T22:15:33;5.50;;;1.58;;
37201;SDS011;37799;52.390;6.136;2022-10-04T22:17:59;4.93;;;1.33;;
37201;SDS011;37799;52.390;6.136;2022-10-04T22:20:24;4.60;;;1.48;;
37201;SDS011;37799;52.390;6.136;2022-10-04T22:22:51;5.38;;;1.15;;
37201;SDS011;37799;52.390;6.136;2022-10-04T22:25:18;4.55;;;0.98;;
37201;SDS011;37799;52.390;6.136;2022-10-04T22:27:45;4.18;;;1.27;;
37201;SDS011;37799;52.390;6.136;2022-10-04T22:32:48;4.90;;;1.13;;
37201;SDS011;37799;52.390;6.136;2022-10-04T22:35:16;6.00;;;1.65;;
37201;SDS011;37799;52.390;6.136;2022-10-04T22:37:43;4.53;;;1.23;;
37201;SDS011;37799;52.390;6.136;2022-10-04T22:40:27;4.80;;;1.20;;
37201;SDS011;37799;52.390;6.136;2022-10-04T22:42:53;7.82;;;1.30;;
37201;SDS011;37799;52.390;6.136;2022-10-04T22:45:22;5.28;;;1.45;;
37201;SDS011;37799;52.390;6.136;2022-10-04T22:47:51;4.38;;;1.42;;
37201;SDS011;37799;52.390;6.136;2022-10-04T22:50:29;5.30;;;1.20;;
37201;SDS011;37799;52.390;6.136;2022-10-04T22:52:55;4.60;;;1.13;;
37201;SDS011;37799;52.390;6.136;2022-10-04T22:55:21;5.97;;;1.40;;
37201;SDS011;37799;52.390;6.136;2022-10-04T22:57:46;5.63;;;1.45;;
37201;SDS011;37799;52.390;6.136;2022-10-04T23:00:12;5.38;;;1.45;;
37201;SDS011;37799;52.390;6.136;2022-10-04T23:02:38;6.18;;;1.67;;
37201;SDS011;37799;52.390;6.136;2022-10-04T23:05:16;4.15;;;1.17;;
37201;SDS011;37799;52.390;6.136;2022-10-04T23:07:43;3.78;;;1.00;;
37201;SDS011;37799;52.390;6.136;2022-10-04T23:10:10;7.20;;;1.13;;
37201;SDS011;37799;52.390;6.136;2022-10-04T23:12:38;5.03;;;1.42;;
37201;SDS011;37799;52.390;6.136;2022-10-04T23:15:04;5.65;;;0.95;;
37201;SDS011;37799;52.390;6.136;2022-10-04T23:17:34;5.32;;;1.42;;
37201;SDS011;37799;52.390;6.136;2022-10-04T23:24:58;3.57;;;1.13;;
37201;SDS011;37799;52.390;6.136;2022-10-04T23:27:24;5.93;;;1.40;;
37201;SDS011;37799;52.390;6.136;2022-10-04T23:29:53;6.20;;;1.90;;
37201;SDS011;37799;52.390;6.136;2022-10-04T23:32:24;6.60;;;1.10;;
37201;SDS011;37799;52.390;6.136;2022-10-04T23:34:50;4.97;;;1.50;;
37201;SDS011;37799;52.390;6.136;2022-10-04T23:37:18;6.38;;;1.17;;
37201;SDS011;37799;52.390;6.136;2022-10-04T23:39:46;5.13;;;1.45;;
37201;SDS011;37799;52.390;6.136;2022-10-04T23:42:14;5.47;;;1.52;;
37201;SDS011;37799;52.390;6.136;2022-10-04T23:44:43;6.57;;;1.40;;
37201;SDS011;37799;52.390;6.136;2022-10-04T23:47:12;5.40;;;1.38;;
37201;SDS011;37799;52.390;6.136;2022-10-04T23:49:39;5.72;;;1.63;;
37201;SDS011;37799;52.390;6.136;2022-10-04T23:52:07;5.43;;;1.25;;
37201;SDS011;37799;52.390;6.136;2022-10-04T23:54:37;5.70;;;1.48;;
37201;SDS011;37799;52.390;6.136;2022-10-04T23:57:02;5.85;;;1.48;;
37201;SDS011;37799;52.390;6.136;2022-10-04T23:59:28;5.55;;;1.38;;
